createdAt,value
2019-03-15T00:00:53.120Z,94.09
2019-03-15T00:01:53.592Z,94.08
2019-03-15T00:02:54.065Z,94.11
2019-03-15T00:03:54.530Z,94.08
2019-03-15T00:04:55.005Z,94.08
2019-03-15T00:05:55.471Z,94.10
2019-03-15T00:06:55.942Z,94.08
2019-03-15T00:07:56.415Z,94.10
2019-03-15T00:08:57.368Z,94.12
2019-03-15T00:09:57.355Z,94.12
2019-03-15T00:10:57.822Z,94.09
2019-03-15T00:11:58.292Z,94.12
2019-03-15T00:12:58.764Z,94.08
2019-03-15T00:13:59.236Z,94.09
2019-03-15T00:14:59.704Z,94.08
2019-03-15T00:16:00.175Z,94.10
2019-03-15T00:17:00.651Z,94.09
2019-03-15T00:18:01.116Z,94.09
2019-03-15T00:19:01.588Z,94.10
2019-03-15T00:20:02.057Z,94.10
2019-03-15T00:22:02.999Z,94.10
2019-03-15T00:23:03.484Z,94.09
2019-03-15T00:24:03.938Z,94.10
2019-03-15T00:25:04.408Z,94.11
2019-03-15T00:26:04.883Z,94.11
2019-03-15T00:27:05.386Z,94.12
2019-03-15T00:28:05.819Z,94.12
2019-03-15T00:29:06.293Z,94.12
2019-03-15T00:30:06.758Z,94.09
2019-03-15T00:31:07.229Z,94.12
2019-03-15T00:32:07.701Z,94.11
2019-03-15T00:33:08.170Z,94.11
2019-03-15T00:34:08.647Z,94.11
2019-03-15T00:35:09.614Z,94.09
2019-03-15T00:36:09.584Z,94.13
2019-03-15T00:37:10.052Z,94.13
2019-03-15T00:38:10.530Z,94.11
2019-03-15T00:39:10.998Z,94.11
2019-03-15T00:40:11.465Z,94.09
2019-03-15T00:41:11.933Z,94.13
2019-03-15T00:42:12.405Z,94.11
2019-03-15T00:43:12.874Z,94.13
2019-03-15T00:44:13.346Z,94.13
2019-03-15T00:45:13.814Z,94.13
2019-03-15T00:46:14.287Z,94.11
2019-03-15T00:47:14.757Z,94.13
2019-03-15T00:48:15.226Z,94.13
2019-03-15T00:49:15.703Z,94.10
2019-03-15T00:50:16.167Z,94.13
2019-03-15T00:51:16.638Z,94.13
2019-03-15T00:52:17.108Z,94.14
2019-03-15T00:53:17.584Z,94.14
2019-03-15T00:54:18.048Z,94.13
2019-03-15T00:55:18.592Z,94.14
2019-03-15T00:56:18.990Z,94.14
2019-03-15T00:57:19.460Z,94.14
2019-03-15T00:58:19.929Z,94.14
2019-03-15T00:59:20.402Z,94.14
2019-03-15T01:00:20.871Z,94.14
2019-03-15T01:01:21.343Z,94.14
2019-03-15T01:02:21.811Z,94.14
2019-03-15T01:03:22.280Z,94.14
2019-03-15T01:04:22.956Z,94.14
2019-03-15T01:05:23.224Z,94.14
2019-03-15T01:06:23.693Z,94.15
2019-03-15T01:07:24.164Z,94.14
2019-03-15T01:08:24.634Z,94.14
2019-03-15T01:09:25.102Z,94.14
2019-03-15T01:10:25.579Z,94.14
2019-03-15T01:11:26.045Z,94.14
2019-03-15T01:12:26.516Z,94.14
2019-03-15T01:13:26.985Z,94.15
2019-03-15T01:14:27.454Z,94.15
2019-03-15T01:15:27.925Z,94.15
2019-03-15T01:16:28.396Z,94.15
2019-03-15T01:17:28.867Z,94.15
2019-03-15T01:18:29.336Z,94.15
2019-03-15T01:19:30.013Z,94.15
2019-03-15T01:20:30.280Z,94.15
2019-03-15T01:21:30.752Z,94.15
2019-03-15T01:22:31.218Z,94.15
2019-03-15T01:23:31.690Z,94.15
2019-03-15T01:24:32.158Z,94.15
2019-03-15T01:25:32.638Z,94.15
2019-03-15T01:26:33.102Z,94.16
2019-03-15T01:27:33.572Z,94.16
2019-03-15T01:28:34.094Z,94.15
2019-03-15T01:29:34.512Z,94.16
2019-03-15T01:30:34.983Z,94.15
2019-03-15T01:31:35.658Z,94.16
2019-03-15T01:32:35.921Z,94.16
2019-03-15T01:33:36.394Z,94.16
2019-03-15T01:34:36.865Z,94.16
2019-03-15T01:35:37.334Z,94.18
2019-03-15T01:36:37.808Z,94.16
2019-03-15T01:37:38.276Z,94.16
2019-03-15T01:38:38.746Z,94.17
2019-03-15T01:39:39.217Z,94.17
2019-03-15T01:40:39.694Z,94.17
2019-03-15T01:41:40.171Z,94.17
2019-03-15T01:42:40.629Z,94.17
2019-03-15T01:43:41.098Z,94.17
2019-03-15T01:44:41.568Z,94.17
2019-03-15T01:45:42.038Z,94.19
2019-03-15T01:46:42.508Z,94.17
2019-03-15T01:47:42.981Z,94.17
2019-03-15T01:48:43.448Z,94.17
2019-03-15T01:49:44.714Z,94.17
2019-03-15T01:50:44.390Z,94.17
2019-03-15T01:51:44.861Z,94.17
2019-03-15T01:52:45.331Z,94.19
2019-03-15T01:53:45.804Z,94.17
2019-03-15T01:54:46.272Z,94.19
2019-03-15T01:55:46.744Z,94.18
2019-03-15T01:56:47.225Z,94.21
2019-03-15T01:57:47.683Z,94.19
2019-03-15T01:58:48.155Z,94.21
2019-03-15T01:59:48.624Z,94.18
2019-03-15T02:00:49.095Z,94.20
2019-03-15T02:01:49.566Z,94.19
2019-03-15T02:02:50.039Z,94.21
2019-03-15T02:03:50.506Z,94.22
2019-03-15T02:04:50.978Z,94.18
2019-03-15T02:05:51.800Z,94.21
2019-03-15T02:06:51.918Z,94.22
2019-03-15T02:07:52.387Z,94.22
2019-03-15T02:08:52.861Z,94.20
2019-03-15T02:09:53.671Z,94.22
2019-03-15T02:10:53.800Z,94.20
2019-03-15T02:11:54.272Z,94.22
2019-03-15T02:12:54.739Z,94.22
2019-03-15T02:13:55.210Z,94.20
2019-03-15T02:14:55.678Z,94.22
2019-03-15T02:15:56.150Z,94.22
2019-03-15T02:16:56.620Z,94.20
2019-03-15T02:17:57.092Z,94.22
2019-03-15T02:18:57.563Z,94.22
2019-03-15T02:19:58.031Z,94.19
2019-03-15T02:20:58.501Z,94.22
2019-03-15T02:21:58.974Z,94.22
2019-03-15T02:22:59.443Z,94.22
2019-03-15T02:23:59.915Z,94.23
2019-03-15T02:25:00.538Z,94.19
2019-03-15T02:26:00.860Z,94.22
2019-03-15T02:27:01.324Z,94.23
2019-03-15T02:28:01.798Z,94.23
2019-03-15T02:29:02.267Z,94.22
2019-03-15T02:30:02.737Z,94.21
2019-03-15T02:31:03.211Z,94.23
2019-03-15T02:32:03.677Z,94.23
2019-03-15T02:33:04.155Z,94.23
2019-03-15T02:34:04.616Z,94.23
2019-03-15T02:35:05.085Z,94.23
2019-03-15T02:36:05.595Z,94.23
2019-03-15T02:37:06.962Z,94.23
2019-03-15T02:38:06.500Z,94.23
2019-03-15T02:39:06.975Z,94.23
2019-03-15T02:40:07.441Z,94.23
2019-03-15T02:41:07.914Z,94.24
2019-03-15T02:42:08.380Z,94.23
2019-03-15T02:43:08.854Z,94.24
2019-03-15T02:44:09.319Z,94.24
2019-03-15T02:45:09.799Z,94.24
2019-03-15T02:46:10.276Z,94.24
2019-03-15T02:47:10.735Z,94.24
2019-03-15T02:48:11.202Z,94.24
2019-03-15T02:49:11.671Z,94.24
2019-03-15T02:50:12.142Z,94.24
2019-03-15T02:51:12.613Z,94.24
2019-03-15T02:52:13.082Z,94.24
2019-03-15T02:53:13.550Z,94.24
2019-03-15T02:54:14.025Z,94.24
2019-03-15T02:55:14.492Z,94.24
2019-03-15T02:56:15.139Z,94.24
2019-03-15T02:57:15.433Z,94.24
2019-03-15T02:58:15.905Z,94.25
2019-03-15T02:59:16.377Z,94.25
2019-03-15T03:00:16.845Z,94.24
2019-03-15T03:01:17.321Z,94.25
2019-03-15T03:02:17.785Z,94.24
2019-03-15T03:03:18.253Z,94.25
2019-03-15T03:04:18.726Z,94.25
2019-03-15T03:05:19.246Z,94.25
2019-03-15T03:06:19.669Z,94.25
2019-03-15T03:07:21.065Z,94.25
2019-03-15T03:08:20.606Z,94.28
2019-03-15T03:09:21.078Z,94.29
2019-03-15T03:10:21.550Z,94.25
2019-03-15T03:11:22.027Z,94.29
2019-03-15T03:12:22.496Z,94.25
2019-03-15T03:13:23.160Z,94.27
2019-03-15T03:14:23.428Z,94.27
2019-03-15T03:15:25.104Z,94.26
2019-03-15T03:16:24.368Z,94.29
2019-03-15T03:17:24.843Z,94.28
2019-03-15T03:18:25.346Z,94.28
2019-03-15T03:19:25.780Z,94.26
2019-03-15T03:20:26.553Z,94.30
2019-03-15T03:21:26.994Z,94.28
2019-03-15T03:22:27.191Z,94.28
2019-03-15T03:23:27.673Z,94.26
2019-03-15T03:24:28.133Z,94.30
2019-03-15T03:25:28.602Z,94.28
2019-03-15T03:26:29.072Z,94.30
2019-03-15T03:27:29.541Z,94.30
2019-03-15T03:28:30.014Z,94.26
2019-03-15T03:29:30.483Z,94.30
2019-03-15T03:30:30.959Z,94.30
2019-03-15T03:31:31.429Z,94.30
2019-03-15T03:32:31.896Z,94.30
2019-03-15T03:33:32.377Z,94.30
2019-03-15T03:34:32.846Z,94.30
2019-03-15T03:35:33.359Z,94.30
2019-03-15T03:36:33.774Z,94.28
2019-03-15T03:37:34.243Z,94.30
2019-03-15T03:38:34.716Z,94.29
2019-03-15T03:39:35.203Z,94.28
2019-03-15T03:40:35.655Z,94.30
2019-03-15T03:41:36.129Z,94.30
2019-03-15T03:42:36.601Z,94.27
2019-03-15T03:43:37.067Z,94.31
2019-03-15T03:44:37.535Z,94.31
2019-03-15T03:45:38.007Z,94.29
2019-03-15T03:46:38.479Z,94.31
2019-03-15T03:47:38.949Z,94.31
2019-03-15T03:48:39.417Z,94.28
2019-03-15T03:49:39.888Z,94.29
2019-03-15T03:50:40.410Z,94.31
2019-03-15T03:51:40.829Z,94.31
2019-03-15T03:52:41.958Z,94.31
2019-03-15T03:53:41.772Z,94.31
2019-03-15T03:54:42.239Z,94.31
2019-03-15T03:55:42.709Z,94.31
2019-03-15T03:56:43.467Z,94.31
2019-03-15T03:57:43.650Z,94.31
2019-03-15T03:58:44.120Z,94.31
2019-03-15T03:59:44.588Z,94.31
2019-03-15T04:00:45.066Z,94.31
2019-03-15T04:01:45.545Z,94.31
2019-03-15T04:02:46.006Z,94.31
2019-03-15T04:03:46.473Z,94.31
2019-03-15T04:04:46.943Z,94.29
2019-03-15T04:05:47.413Z,94.31
2019-03-15T04:06:47.882Z,94.31
2019-03-15T04:07:48.352Z,94.31
2019-03-15T04:08:48.822Z,94.31
2019-03-15T04:09:49.292Z,94.31
2019-03-15T04:10:49.764Z,94.30
2019-03-15T04:11:55.287Z,94.31
2019-03-15T04:12:50.705Z,94.31
2019-03-15T04:13:51.177Z,94.31
2019-03-15T04:14:51.684Z,94.31
2019-03-15T04:15:52.116Z,94.30
2019-03-15T04:16:52.583Z,94.31
2019-03-15T04:17:53.057Z,94.31
2019-03-15T04:18:53.527Z,94.31
2019-03-15T04:19:53.999Z,94.31
2019-03-15T04:20:54.470Z,94.31
2019-03-15T04:21:54.936Z,94.31
2019-03-15T04:22:55.569Z,94.31
2019-03-15T04:23:55.877Z,94.31
2019-03-15T04:24:56.347Z,94.31
2019-03-15T04:25:56.819Z,94.31
2019-03-15T04:26:57.289Z,94.31
2019-03-15T04:27:57.760Z,94.31
2019-03-15T04:28:58.278Z,94.31
2019-03-15T04:29:58.701Z,94.31
2019-03-15T04:30:59.170Z,94.31
2019-03-15T04:31:59.639Z,94.31
2019-03-15T04:33:00.111Z,94.32
2019-03-15T04:34:00.580Z,94.31
2019-03-15T04:35:01.054Z,94.32
2019-03-15T04:36:01.622Z,94.31
2019-03-15T04:37:01.993Z,94.32
2019-03-15T04:38:02.467Z,94.32
2019-03-15T04:39:02.932Z,94.31
2019-03-15T04:40:03.402Z,94.31
2019-03-15T04:41:03.872Z,94.32
2019-03-15T04:42:04.344Z,94.31
2019-03-15T04:43:04.815Z,94.31
2019-03-15T04:44:05.286Z,94.31
2019-03-15T04:45:05.756Z,94.31
2019-03-15T04:46:06.292Z,94.32
2019-03-15T04:47:06.695Z,94.31
2019-03-15T04:48:07.169Z,94.31
2019-03-15T04:49:07.639Z,94.31
2019-03-15T04:50:08.111Z,94.31
2019-03-15T04:51:08.577Z,94.31
2019-03-15T04:52:09.052Z,94.33
2019-03-15T04:53:09.521Z,94.31
2019-03-15T04:54:09.989Z,94.32
2019-03-15T04:55:10.461Z,94.31
2019-03-15T04:56:10.929Z,94.32
2019-03-15T04:57:11.440Z,94.32
2019-03-15T04:58:11.872Z,94.31
2019-03-15T04:59:12.341Z,94.32
2019-03-15T05:00:12.816Z,94.31
2019-03-15T05:01:13.281Z,94.31
2019-03-15T05:02:13.755Z,94.31
2019-03-15T05:03:14.225Z,94.31
2019-03-15T05:04:14.695Z,94.31
2019-03-15T05:05:15.167Z,94.31
2019-03-15T05:06:15.667Z,94.32
2019-03-15T05:07:16.112Z,94.32
2019-03-15T05:08:16.575Z,94.32
2019-03-15T05:09:17.047Z,94.32
2019-03-15T05:10:17.520Z,94.31
2019-03-15T05:11:17.988Z,94.32
2019-03-15T05:12:18.799Z,94.32
2019-03-15T05:13:18.928Z,94.32
2019-03-15T05:14:19.399Z,94.32
2019-03-15T05:15:19.868Z,94.32
2019-03-15T05:16:20.686Z,94.32
2019-03-15T05:17:20.809Z,94.32
2019-03-15T05:18:21.283Z,94.34
2019-03-15T05:19:21.749Z,94.32
2019-03-15T05:20:22.220Z,94.32
2019-03-15T05:21:22.689Z,94.32
2019-03-15T05:22:23.162Z,94.32
2019-03-15T05:23:23.632Z,94.32
2019-03-15T05:24:24.104Z,94.32
2019-03-15T05:25:24.572Z,94.32
2019-03-15T05:26:25.249Z,94.32
2019-03-15T05:27:25.514Z,94.32
2019-03-15T05:28:25.984Z,94.32
2019-03-15T05:29:26.457Z,94.32
2019-03-15T05:30:26.925Z,94.32
2019-03-15T05:31:27.399Z,94.32
2019-03-15T05:32:30.839Z,94.34
2019-03-15T05:33:28.337Z,94.32
2019-03-15T05:34:28.807Z,94.32
2019-03-15T05:35:29.279Z,94.34
2019-03-15T05:36:30.088Z,94.32
2019-03-15T05:37:30.219Z,94.32
2019-03-15T05:38:30.692Z,94.32
2019-03-15T05:39:31.160Z,94.32
2019-03-15T05:40:31.727Z,94.36
2019-03-15T05:41:32.161Z,94.32
2019-03-15T05:42:32.570Z,94.34
2019-03-15T05:43:33.042Z,94.32
2019-03-15T05:44:33.591Z,94.32
2019-03-15T05:45:33.986Z,94.32
2019-03-15T05:46:34.453Z,94.33
2019-03-15T05:47:34.923Z,94.33
2019-03-15T05:48:35.397Z,94.34
2019-03-15T05:49:35.865Z,94.34
2019-03-15T05:50:36.335Z,94.34
2019-03-15T05:51:36.806Z,94.32
2019-03-15T05:52:37.277Z,94.37
2019-03-15T05:53:37.748Z,94.35
2019-03-15T05:54:38.218Z,94.32
2019-03-15T05:55:38.688Z,94.33
2019-03-15T05:56:39.158Z,94.35
2019-03-15T05:57:39.630Z,94.35
2019-03-15T05:58:40.099Z,94.32
2019-03-15T05:59:40.569Z,94.36
2019-03-15T06:00:41.038Z,94.37
2019-03-15T06:01:41.512Z,94.32
2019-03-15T06:02:41.979Z,94.35
2019-03-15T06:03:48.549Z,94.33
2019-03-15T06:04:42.920Z,94.33
2019-03-15T06:05:43.390Z,94.33
2019-03-15T06:06:43.915Z,94.37
2019-03-15T06:07:44.335Z,94.33
2019-03-15T06:08:44.802Z,94.35
2019-03-15T06:09:45.278Z,94.35
2019-03-15T06:10:45.746Z,94.35
2019-03-15T06:11:46.217Z,94.37
2019-03-15T06:12:46.690Z,94.35
2019-03-15T06:13:47.156Z,94.37
2019-03-15T06:14:47.627Z,94.33
2019-03-15T06:15:48.098Z,94.33
2019-03-15T06:16:48.578Z,94.35
2019-03-15T06:18:49.508Z,94.35
2019-03-15T06:19:49.979Z,94.35
2019-03-15T06:20:50.449Z,94.33
2019-03-15T06:21:50.920Z,94.33
2019-03-15T06:22:51.390Z,94.37
2019-03-15T06:23:51.861Z,94.37
2019-03-15T06:24:52.330Z,94.37
2019-03-15T06:25:52.802Z,94.37
2019-03-15T06:26:53.273Z,94.37
2019-03-15T06:27:53.744Z,94.37
2019-03-15T06:28:54.212Z,94.34
2019-03-15T06:29:54.683Z,94.37
2019-03-15T06:30:55.152Z,94.37
2019-03-15T06:31:55.625Z,94.37
2019-03-15T06:32:56.093Z,94.37
2019-03-15T06:33:56.564Z,94.37
2019-03-15T06:34:57.036Z,94.37
2019-03-15T06:35:57.504Z,94.34
2019-03-15T06:36:57.974Z,94.37
2019-03-15T06:37:58.445Z,94.37
2019-03-15T06:38:58.916Z,94.34
2019-03-15T06:39:59.388Z,94.35
2019-03-15T06:41:00.342Z,94.35
2019-03-15T06:42:00.328Z,94.37
2019-03-15T06:43:00.798Z,94.37
2019-03-15T06:44:01.267Z,94.37
2019-03-15T06:45:01.741Z,94.37
2019-03-15T06:46:02.210Z,94.37
2019-03-15T06:47:02.681Z,94.37
2019-03-15T06:48:03.150Z,94.37
2019-03-15T06:49:03.624Z,94.37
2019-03-15T06:50:04.090Z,94.38
2019-03-15T06:51:04.561Z,94.38
2019-03-15T06:52:05.031Z,94.38
2019-03-15T06:53:05.501Z,94.37
2019-03-15T06:54:11.346Z,94.36
2019-03-15T06:55:06.442Z,94.37
2019-03-15T06:56:06.913Z,94.38
2019-03-15T06:57:07.383Z,94.38
2019-03-15T06:58:07.853Z,94.38
2019-03-15T06:59:08.324Z,94.38
2019-03-15T07:00:08.796Z,94.38
2019-03-15T07:01:09.265Z,94.38
2019-03-15T07:02:09.735Z,94.38
2019-03-15T07:03:10.205Z,94.38
2019-03-15T07:04:10.678Z,94.38
2019-03-15T07:05:12.298Z,94.38
2019-03-15T07:06:11.615Z,94.38
2019-03-15T07:07:15.068Z,94.38
2019-03-15T07:08:12.903Z,94.38
2019-03-15T07:09:13.026Z,94.38
2019-03-15T07:10:13.497Z,94.38
2019-03-15T07:11:13.968Z,94.38
2019-03-15T07:12:14.489Z,94.38
2019-03-15T07:13:14.912Z,94.38
2019-03-15T07:14:15.980Z,94.38
2019-03-15T07:15:15.849Z,94.38
2019-03-15T07:16:16.319Z,94.38
2019-03-15T07:17:16.792Z,94.38
2019-03-15T07:18:18.645Z,94.38
2019-03-15T07:19:26.423Z,94.38
2019-03-15T07:20:18.203Z,94.38
2019-03-15T07:21:18.671Z,94.38
2019-03-15T07:22:20.134Z,94.38
2019-03-15T07:23:19.613Z,94.39
2019-03-15T07:24:24.868Z,94.38
2019-03-15T07:25:20.554Z,94.38
2019-03-15T07:26:21.023Z,94.38
2019-03-15T07:27:22.038Z,94.38
2019-03-15T07:28:21.965Z,94.38
2019-03-15T07:29:22.487Z,94.39
2019-03-15T07:30:22.937Z,94.39
2019-03-15T07:31:23.418Z,94.39
2019-03-15T07:32:23.852Z,94.39
2019-03-15T07:33:24.316Z,94.39
2019-03-15T07:34:24.791Z,94.41
2019-03-15T07:35:25.259Z,94.40
2019-03-15T07:36:25.854Z,94.39
2019-03-15T07:37:26.199Z,94.40
2019-03-15T07:38:26.670Z,94.39
2019-03-15T07:39:27.141Z,94.39
2019-03-15T07:40:27.609Z,94.40
2019-03-15T07:41:28.080Z,94.42
2019-03-15T07:42:28.551Z,94.40
2019-03-15T07:43:29.024Z,94.40
2019-03-15T07:44:29.490Z,94.40
2019-03-15T07:45:29.961Z,94.41
2019-03-15T07:46:30.434Z,94.40
2019-03-15T07:47:30.903Z,94.44
2019-03-15T07:48:31.375Z,94.40
2019-03-15T07:49:31.844Z,94.42
2019-03-15T07:50:32.312Z,94.41
2019-03-15T07:51:32.798Z,94.42
2019-03-15T07:52:33.253Z,94.43
2019-03-15T07:53:35.380Z,94.41
2019-03-15T07:54:38.349Z,94.44
2019-03-15T07:55:34.667Z,94.44
2019-03-15T07:56:35.137Z,94.45
2019-03-15T08:00:37.036Z,94.46
2019-03-15T08:01:37.490Z,94.44
2019-03-15T08:02:37.958Z,94.46
2019-03-15T08:03:38.429Z,94.46
2019-03-15T08:04:38.905Z,94.45
2019-03-15T08:05:39.367Z,94.46
2019-03-15T08:06:39.839Z,94.46
2019-03-15T08:07:45.275Z,94.46
2019-03-15T08:08:40.855Z,94.46
2019-03-15T08:09:41.452Z,94.46
2019-03-15T08:10:41.720Z,94.46
2019-03-15T08:11:42.195Z,94.46
2019-03-15T08:12:42.662Z,94.44
2019-03-15T08:13:43.136Z,94.46
2019-03-15T08:14:43.602Z,94.46
2019-03-15T08:15:44.073Z,94.46
2019-03-15T08:16:44.545Z,94.47
2019-03-15T08:17:45.015Z,94.46
2019-03-15T08:18:45.486Z,94.46
2019-03-15T08:19:45.956Z,94.46
2019-03-15T08:20:46.425Z,94.46
2019-03-15T08:21:46.895Z,94.46
2019-03-15T08:22:47.367Z,94.46
2019-03-15T08:23:47.835Z,94.47
2019-03-15T08:24:51.723Z,94.46
2019-03-15T08:25:50.401Z,94.47
2019-03-15T08:26:49.250Z,94.47
2019-03-15T08:27:49.720Z,94.46
2019-03-15T08:30:51.129Z,94.47
2019-03-15T08:31:51.606Z,94.47
2019-03-15T08:32:52.073Z,94.47
2019-03-15T08:33:52.543Z,94.47
2019-03-15T08:34:53.014Z,94.47
2019-03-15T08:35:53.481Z,94.47
2019-03-15T08:36:53.951Z,94.47
2019-03-15T08:37:54.426Z,94.47
2019-03-15T08:38:54.894Z,94.47
2019-03-15T08:39:55.366Z,94.46
2019-03-15T08:40:55.836Z,94.47
2019-03-15T08:41:56.305Z,94.47
2019-03-15T08:42:56.778Z,94.47
2019-03-15T08:44:57.719Z,94.47
2019-03-15T08:45:58.187Z,94.47
2019-03-15T08:46:58.659Z,94.47
2019-03-15T08:47:59.133Z,94.47
2019-03-15T08:48:59.600Z,94.47
2019-03-15T08:50:00.071Z,94.47
2019-03-15T08:51:00.538Z,94.47
2019-03-15T08:52:04.089Z,94.47
2019-03-15T08:53:01.484Z,94.47
2019-03-15T08:54:01.951Z,94.47
2019-03-15T08:55:05.515Z,94.47
2019-03-15T08:56:02.891Z,94.47
2019-03-15T08:57:03.363Z,94.47
2019-03-15T08:58:13.490Z,94.47
2019-03-15T08:59:04.304Z,94.47
2019-03-15T09:00:04.775Z,94.47
2019-03-15T09:01:05.334Z,94.47
2019-03-15T09:02:05.717Z,94.47
2019-03-15T09:03:06.189Z,94.47
2019-03-15T09:04:06.655Z,94.47
2019-03-15T09:05:07.129Z,94.47
2019-03-15T09:06:07.599Z,94.47
2019-03-15T09:07:08.070Z,94.47
2019-03-15T09:08:08.541Z,94.47
2019-03-15T09:09:09.016Z,94.47
2019-03-15T09:10:21.848Z,94.47
2019-03-15T09:11:09.957Z,94.47
2019-03-15T09:12:10.421Z,94.47
2019-03-15T09:13:10.892Z,94.46
2019-03-15T09:14:11.363Z,94.47
2019-03-15T09:15:11.836Z,94.47
2019-03-15T09:16:12.306Z,94.47
2019-03-15T09:18:13.247Z,94.47
2019-03-15T09:19:13.752Z,94.47
2019-03-15T09:20:14.185Z,94.47
2019-03-15T09:21:14.665Z,94.47
2019-03-15T09:22:15.129Z,94.47
2019-03-15T09:23:15.649Z,94.47
2019-03-15T09:24:16.068Z,94.47
2019-03-15T09:25:19.686Z,94.47
2019-03-15T09:26:17.009Z,94.47
2019-03-15T09:27:17.483Z,94.47
2019-03-15T09:28:17.950Z,94.47
2019-03-15T09:29:18.423Z,94.47
2019-03-15T09:30:23.737Z,94.46
2019-03-15T09:31:19.370Z,94.47
2019-03-15T09:32:19.837Z,94.47
2019-03-15T09:33:20.305Z,94.46
2019-03-15T09:34:20.776Z,94.47
2019-03-15T09:35:21.244Z,94.47
2019-03-15T09:36:21.716Z,94.46
2019-03-15T09:37:22.185Z,94.47
2019-03-15T09:38:22.711Z,94.47
2019-03-15T09:39:23.128Z,94.46
2019-03-15T09:40:25.701Z,94.46
2019-03-15T09:41:31.907Z,94.46
2019-03-15T09:42:24.539Z,94.46
2019-03-15T09:43:25.010Z,94.47
2019-03-15T09:44:25.513Z,94.46
2019-03-15T09:45:25.950Z,94.47
2019-03-15T09:46:26.422Z,94.47
2019-03-15T09:47:26.893Z,94.46
2019-03-15T09:48:27.362Z,94.46
2019-03-15T09:49:27.877Z,94.47
2019-03-15T09:50:35.952Z,94.47
2019-03-15T09:51:28.773Z,94.47
2019-03-15T09:52:29.243Z,94.47
2019-03-15T09:53:29.716Z,94.47
2019-03-15T09:54:30.397Z,94.47
2019-03-15T09:55:33.170Z,94.47
2019-03-15T09:56:31.128Z,94.47
2019-03-15T09:57:31.599Z,94.47
2019-03-15T09:58:32.066Z,94.47
2019-03-15T09:59:32.537Z,94.47
2019-03-15T10:00:33.008Z,94.47
2019-03-15T10:01:35.042Z,94.47
2019-03-15T10:02:33.947Z,94.47
2019-03-15T10:03:34.420Z,94.47
2019-03-15T10:04:36.156Z,94.47
2019-03-15T10:05:35.362Z,94.47
2019-03-15T10:06:35.836Z,94.47
2019-03-15T10:07:38.695Z,94.47
2019-03-15T10:08:36.775Z,94.47
2019-03-15T10:09:45.775Z,94.47
2019-03-15T10:10:37.713Z,94.47
2019-03-15T10:11:38.183Z,94.47
2019-03-15T10:12:38.658Z,94.47
2019-03-15T10:13:39.129Z,94.47
2019-03-15T10:14:39.597Z,94.47
2019-03-15T10:15:40.211Z,94.47
2019-03-15T10:16:40.537Z,94.47
2019-03-15T10:17:41.013Z,94.47
2019-03-15T10:18:41.478Z,94.47
2019-03-15T10:19:41.948Z,94.47
2019-03-15T10:20:45.391Z,94.47
2019-03-15T10:21:42.889Z,94.47
2019-03-15T10:22:43.359Z,94.47
2019-03-15T10:23:43.830Z,94.47
2019-03-15T10:24:44.302Z,94.47
2019-03-15T10:25:47.092Z,94.47
2019-03-15T10:26:45.240Z,94.47
2019-03-15T10:27:45.717Z,94.48
2019-03-15T10:28:46.186Z,94.48
2019-03-15T10:29:46.657Z,94.48
2019-03-15T10:30:47.123Z,94.48
2019-03-15T10:31:47.599Z,94.47
2019-03-15T10:32:48.070Z,94.48
2019-03-15T10:33:50.635Z,94.47
2019-03-15T10:34:49.007Z,94.47
2019-03-15T10:35:49.478Z,94.47
2019-03-15T10:36:49.947Z,94.48
2019-03-15T10:37:50.481Z,94.48
2019-03-15T10:38:51.190Z,94.50
2019-03-15T10:39:51.359Z,94.47
2019-03-15T10:40:51.830Z,94.48
2019-03-15T10:42:55.371Z,94.48
2019-03-15T10:43:53.241Z,94.48
2019-03-15T10:44:53.713Z,94.48
2019-03-15T10:45:54.203Z,94.48
2019-03-15T10:46:54.653Z,94.48
2019-03-15T10:47:55.126Z,94.48
2019-03-15T10:48:55.592Z,94.48
2019-03-15T10:49:56.080Z,94.48
2019-03-15T10:50:56.537Z,94.48
2019-03-15T10:51:57.004Z,94.48
2019-03-15T10:52:57.475Z,94.48
2019-03-15T10:53:57.946Z,94.48
2019-03-15T10:54:58.418Z,94.48
2019-03-15T10:56:00.427Z,94.48
2019-03-15T10:56:59.358Z,94.49
2019-03-15T10:57:59.831Z,94.48
2019-03-15T10:59:00.301Z,94.48
2019-03-15T11:00:00.777Z,94.48
2019-03-15T11:01:01.239Z,94.48
2019-03-15T11:02:01.709Z,94.48
2019-03-15T11:03:02.181Z,94.50
2019-03-15T11:04:02.658Z,94.48
2019-03-15T11:05:03.123Z,94.51
2019-03-15T11:06:03.596Z,94.49
2019-03-15T11:07:04.063Z,94.48
2019-03-15T11:08:04.566Z,94.49
2019-03-15T11:09:05.003Z,94.49
2019-03-15T11:10:05.477Z,94.51
2019-03-15T11:11:05.945Z,94.49
2019-03-15T11:12:06.416Z,94.49
2019-03-15T11:13:06.888Z,94.49
2019-03-15T11:14:07.359Z,94.51
2019-03-15T11:15:07.838Z,94.53
2019-03-15T11:16:08.298Z,94.49
2019-03-15T11:17:08.778Z,94.53
2019-03-15T11:18:09.249Z,94.52
2019-03-15T11:19:09.714Z,94.49
2019-03-15T11:20:10.180Z,94.49
2019-03-15T11:21:10.651Z,94.49
2019-03-15T11:22:11.124Z,94.49
2019-03-15T11:23:11.591Z,94.53
2019-03-15T11:24:12.063Z,94.51
2019-03-15T11:25:12.540Z,94.53
2019-03-15T11:26:14.113Z,94.49
2019-03-15T11:27:13.473Z,94.49
2019-03-15T11:28:13.957Z,94.51
2019-03-15T11:29:14.417Z,94.49
2019-03-15T11:30:14.888Z,94.51
2019-03-15T11:31:15.358Z,94.53
2019-03-15T11:32:15.828Z,94.53
2019-03-15T11:33:16.306Z,94.49
2019-03-15T11:34:16.769Z,94.53
2019-03-15T11:35:17.240Z,94.53
2019-03-15T11:36:17.714Z,94.50
2019-03-15T11:37:18.180Z,94.51
2019-03-15T11:38:18.652Z,94.53
2019-03-15T11:39:19.122Z,94.51
2019-03-15T11:40:19.714Z,94.53
2019-03-15T11:41:20.066Z,94.53
2019-03-15T11:42:20.535Z,94.52
2019-03-15T11:43:21.008Z,94.54
2019-03-15T11:44:21.478Z,94.52
2019-03-15T11:45:21.945Z,94.54
2019-03-15T11:46:22.416Z,94.54
2019-03-15T11:47:22.887Z,94.54
2019-03-15T11:48:23.358Z,94.54
2019-03-15T11:49:23.829Z,94.54
2019-03-15T11:50:24.303Z,94.54
2019-03-15T11:51:24.771Z,94.54
2019-03-15T11:52:25.241Z,94.54
2019-03-15T11:54:26.240Z,94.55
2019-03-15T11:55:26.651Z,94.54
2019-03-15T11:56:27.461Z,94.54
2019-03-15T11:57:27.593Z,94.55
2019-03-15T11:58:28.067Z,94.55
2019-03-15T11:59:28.584Z,94.54
2019-03-15T12:00:29.005Z,94.55
2019-03-15T12:01:29.476Z,94.55
2019-03-15T12:02:29.948Z,94.55
2019-03-15T12:03:30.419Z,94.55
2019-03-15T12:04:30.889Z,94.55
2019-03-15T12:05:31.359Z,94.56
2019-03-15T12:06:31.840Z,94.55
2019-03-15T12:07:32.301Z,94.56
2019-03-15T12:08:32.772Z,94.55
2019-03-15T12:09:33.243Z,94.56
2019-03-15T12:10:33.712Z,94.55
2019-03-15T12:11:34.185Z,94.56
2019-03-15T12:12:34.656Z,94.56
2019-03-15T12:13:35.123Z,94.56
2019-03-15T12:14:40.803Z,94.56
2019-03-15T12:15:36.470Z,94.56
2019-03-15T12:16:36.537Z,94.56
2019-03-15T12:17:37.008Z,94.56
2019-03-15T12:18:37.483Z,94.56
2019-03-15T12:19:37.949Z,94.56
2019-03-15T12:20:38.422Z,94.56
2019-03-15T12:22:39.363Z,94.57
2019-03-15T12:23:39.874Z,94.57
2019-03-15T12:24:40.307Z,94.56
2019-03-15T12:25:40.774Z,94.56
2019-03-15T12:26:41.244Z,94.56
2019-03-15T12:27:41.713Z,94.57
2019-03-15T12:28:42.183Z,94.59
2019-03-15T12:29:42.657Z,94.57
2019-03-15T12:30:43.358Z,94.57
2019-03-15T12:31:43.601Z,94.57
2019-03-15T12:32:44.071Z,94.59
2019-03-15T12:33:44.541Z,94.57
2019-03-15T12:34:45.009Z,94.57
2019-03-15T12:35:45.480Z,94.57
2019-03-15T12:36:45.952Z,94.57
2019-03-15T12:37:46.421Z,94.57
2019-03-15T12:38:46.893Z,94.57
2019-03-15T12:39:47.364Z,94.59
2019-03-15T12:40:47.844Z,94.57
2019-03-15T12:41:48.303Z,94.57
2019-03-15T12:42:48.774Z,94.59
2019-03-15T12:43:49.249Z,94.61
2019-03-15T12:44:49.768Z,94.58
2019-03-15T12:45:50.187Z,94.61
2019-03-15T12:46:50.658Z,94.58
2019-03-15T12:47:51.133Z,94.58
2019-03-15T12:48:51.601Z,94.58
2019-03-15T12:49:52.071Z,94.60
2019-03-15T12:50:52.541Z,94.60
2019-03-15T12:51:53.010Z,94.62
2019-03-15T12:52:53.491Z,94.58
2019-03-15T12:53:53.957Z,94.62
2019-03-15T12:54:54.425Z,94.60
2019-03-15T12:55:54.893Z,94.58
2019-03-15T12:56:55.365Z,94.59
2019-03-15T12:57:55.837Z,94.59
2019-03-15T12:58:56.307Z,94.62
2019-03-15T12:59:56.833Z,94.60
2019-03-15T13:00:57.249Z,94.62
2019-03-15T13:01:57.725Z,94.62
2019-03-15T13:02:58.191Z,94.59
2019-03-15T13:03:58.660Z,94.62
2019-03-15T13:04:59.132Z,94.61
2019-03-15T13:05:59.602Z,94.62
2019-03-15T13:07:00.074Z,94.62
2019-03-15T13:08:00.546Z,94.62
2019-03-15T13:09:01.013Z,94.62
2019-03-15T13:10:01.489Z,94.62
2019-03-15T13:11:01.956Z,94.62